Airfield :
LOGIN :

Register | Disclaimer

   EN    FR    IT 

 










Legend :    VFR   Marginal VFR   IFR   Intensive IFR   Very Intensive IFR
Visi :
Ceiling :
>= 8 km
>= 3000ft
5 to 8 km
1000 to 3000 ft
1500m to 5 km
500 to 1000 ft
800 to 1500m
200 to 500 ft
< 800m
< 200 ft
Symbols :   Thunderstorms  Fog  Heavy snow  Heavy precipitations  Wind > 20 kt
SIGMETs :     Misc.  Thunderstorms  Icing  Turbulence  Mountain Waves  Volcanic Ashes







- Airport Elevation : 26 ft
- IATA code : GLA
- Download approach charts


EGPF - Glasgow

CURRENT METAR :
  • 181520Z AUTO 25013KT 9999 FEW022 BKN027 OVC038 14/12 Q0995

EXPIRED METARs :
  • 181450Z AUTO 24017KT 9999 FEW031 SCT040 17/12 Q0995
  • 181420Z AUTO 24017KT 9999 SCT023/// SCT032/// //////CB 16/13 Q0995
  • 181350Z 24013G23KT 8000 -RA SCT016CB BKN024 BKN039 14/13 Q0995 RERA
  • 181320Z AUTO 24015KT 9999 -RA SCT018/// SCT031/// BKN046/// //////CB 14/13 Q0994

TAF AMD TAF EGPF
Valid from the 18 at 12:00 until the 19 at 12:00 UTC


181257Z 1812/1912 22015KT 9999 SCT018CB
TEMPO 1812/1815 24020G30KT 6000 SHRA BKN014
TEMPO 1820/1909 6000 SHRA RA BKN012
PROB30
TEMPO 1909/1912 7000 SHRA
ATIS : +44 141 887 7449
No reported NOTAMs for that airfield.



MET'MAP, your aeronautical weather chart ! - Copyright ORBIFLY December 2007 - Disclaimer

ORBIFLY MET'MAP TEAM :

Programming & Development : Alexandra Zaïnal
Concept & Development : Baudouin d'Aumeries
Co-Development & Prog : Marc-Olivier Méhu
Technical & hardware support : Manuel Goepfert

Contact : metmap@orbifly.com




SOURCES & CREDITS :

   NOAA